sensor_id;sensor_type;location;lat;lon;timestamp;temperature;humidity
19060;DHT22;9663;48.996;8.334;2023-11-22T00:00:44;12.10;64.50
19060;DHT22;9663;48.996;8.334;2023-11-22T00:03:10;12.10;64.50
19060;DHT22;9663;48.996;8.334;2023-11-22T00:05:36;12.10;64.50
19060;DHT22;9663;48.996;8.334;2023-11-22T00:08:01;12.00;64.40
19060;DHT22;9663;48.996;8.334;2023-11-22T00:10:27;12.00;64.40
19060;DHT22;9663;48.996;8.334;2023-11-22T00:12:53;12.00;64.40
19060;DHT22;9663;48.996;8.334;2023-11-22T00:15:18;12.00;64.40
19060;DHT22;9663;48.996;8.334;2023-11-22T00:17:45;11.90;64.50
19060;DHT22;9663;48.996;8.334;2023-11-22T00:20:11;11.90;64.40
19060;DHT22;9663;48.996;8.334;2023-11-22T00:22:37;11.90;64.40
19060;DHT22;9663;48.996;8.334;2023-11-22T00:25:03;11.80;64.40
19060;DHT22;9663;48.996;8.334;2023-11-22T00:27:29;11.80;64.40
19060;DHT22;9663;48.996;8.334;2023-11-22T00:29:58;11.80;64.50
19060;DHT22;9663;48.996;8.334;2023-11-22T00:32:24;11.70;64.50
19060;DHT22;9663;48.996;8.334;2023-11-22T00:34:51;11.70;64.60
19060;DHT22;9663;48.996;8.334;2023-11-22T00:37:18;11.60;64.70
19060;DHT22;9663;48.996;8.334;2023-11-22T00:39:43;11.60;64.80
19060;DHT22;9663;48.996;8.334;2023-11-22T00:42:10;11.60;64.90
19060;DHT22;9663;48.996;8.334;2023-11-22T00:44:35;11.50;64.80
19060;DHT22;9663;48.996;8.334;2023-11-22T00:47:02;11.50;65.00
19060;DHT22;9663;48.996;8.334;2023-11-22T00:49:28;11.50;65.10
19060;DHT22;9663;48.996;8.334;2023-11-22T00:51:53;11.40;65.00
19060;DHT22;9663;48.996;8.334;2023-11-22T00:54:19;11.40;64.90
19060;DHT22;9663;48.996;8.334;2023-11-22T00:56:46;11.40;64.90
19060;DHT22;9663;48.996;8.334;2023-11-22T00:59:12;11.30;65.00
19060;DHT22;9663;48.996;8.334;2023-11-22T01:01:39;11.30;64.80
19060;DHT22;9663;48.996;8.334;2023-11-22T01:04:06;11.20;64.60
19060;DHT22;9663;48.996;8.334;2023-11-22T01:06:33;11.20;64.60
19060;DHT22;9663;48.996;8.334;2023-11-22T01:08:59;11.10;64.60
19060;DHT22;9663;48.996;8.334;2023-11-22T01:11:25;11.10;64.60
19060;DHT22;9663;48.996;8.334;2023-11-22T01:13:51;11.00;64.40
19060;DHT22;9663;48.996;8.334;2023-11-22T01:16:17;10.90;64.50
19060;DHT22;9663;48.996;8.334;2023-11-22T01:18:43;10.90;64.70
19060;DHT22;9663;48.996;8.334;2023-11-22T01:21:11;10.80;64.80
19060;DHT22;9663;48.996;8.334;2023-11-22T01:23:37;10.80;65.00
19060;DHT22;9663;48.996;8.334;2023-11-22T01:26:03;10.80;65.10
19060;DHT22;9663;48.996;8.334;2023-11-22T01:28:29;10.70;65.10
19060;DHT22;9663;48.996;8.334;2023-11-22T01:30:59;10.70;64.90
19060;DHT22;9663;48.996;8.334;2023-11-22T01:33:27;10.60;64.70
19060;DHT22;9663;48.996;8.334;2023-11-22T01:35:52;10.60;64.80
19060;DHT22;9663;48.996;8.334;2023-11-22T01:38:18;10.50;64.90
19060;DHT22;9663;48.996;8.334;2023-11-22T01:40:47;10.50;65.20
19060;DHT22;9663;48.996;8.334;2023-11-22T01:43:20;10.50;65.20
19060;DHT22;9663;48.996;8.334;2023-11-22T01:45:49;10.40;65.20
19060;DHT22;9663;48.996;8.334;2023-11-22T01:48:15;10.40;65.20
19060;DHT22;9663;48.996;8.334;2023-11-22T01:50:42;10.40;65.20
19060;DHT22;9663;48.996;8.334;2023-11-22T01:53:11;10.40;65.20
19060;DHT22;9663;48.996;8.334;2023-11-22T01:55:42;10.40;65.30
19060;DHT22;9663;48.996;8.334;2023-11-22T01:58:10;10.30;65.20
19060;DHT22;9663;48.996;8.334;2023-11-22T02:00:51;10.30;65.30
19060;DHT22;9663;48.996;8.334;2023-11-22T02:03:18;10.30;65.20
19060;DHT22;9663;48.996;8.334;2023-11-22T02:05:45;10.20;65.20
19060;DHT22;9663;48.996;8.334;2023-11-22T02:08:12;10.20;65.20
19060;DHT22;9663;48.996;8.334;2023-11-22T02:10:39;10.20;65.40
19060;DHT22;9663;48.996;8.334;2023-11-22T02:13:06;10.10;65.40
19060;DHT22;9663;48.996;8.334;2023-11-22T02:15:34;10.10;65.60
19060;DHT22;9663;48.996;8.334;2023-11-22T02:18:00;10.10;65.70
19060;DHT22;9663;48.996;8.334;2023-11-22T02:20:28;10.10;65.70
19060;DHT22;9663;48.996;8.334;2023-11-22T02:22:54;10.10;65.70
19060;DHT22;9663;48.996;8.334;2023-11-22T02:25:20;10.10;65.70
19060;DHT22;9663;48.996;8.334;2023-11-22T02:27:46;10.10;65.80
19060;DHT22;9663;48.996;8.334;2023-11-22T02:30:12;10.10;65.70
19060;DHT22;9663;48.996;8.334;2023-11-22T02:32:37;10.10;65.70
19060;DHT22;9663;48.996;8.334;2023-11-22T02:35:05;10.10;65.70
19060;DHT22;9663;48.996;8.334;2023-11-22T02:37:33;10.10;65.60
19060;DHT22;9663;48.996;8.334;2023-11-22T02:40:20;10.10;65.60
19060;DHT22;9663;48.996;8.334;2023-11-22T02:42:48;10.00;65.60
19060;DHT22;9663;48.996;8.334;2023-11-22T02:45:19;10.00;65.60
19060;DHT22;9663;48.996;8.334;2023-11-22T02:47:48;10.00;65.70
19060;DHT22;9663;48.996;8.334;2023-11-22T02:50:15;10.00;65.70
19060;DHT22;9663;48.996;8.334;2023-11-22T02:52:42;10.10;65.70
19060;DHT22;9663;48.996;8.334;2023-11-22T02:55:09;10.10;65.70
19060;DHT22;9663;48.996;8.334;2023-11-22T02:57:35;10.10;65.60
19060;DHT22;9663;48.996;8.334;2023-11-22T03:00:06;10.10;65.60
19060;DHT22;9663;48.996;8.334;2023-11-22T03:02:39;10.10;65.60
19060;DHT22;9663;48.996;8.334;2023-11-22T03:05:10;10.00;65.60
19060;DHT22;9663;48.996;8.334;2023-11-22T03:07:36;10.00;65.50
19060;DHT22;9663;48.996;8.334;2023-11-22T03:10:03;10.10;65.60
19060;DHT22;9663;48.996;8.334;2023-11-22T03:12:29;10.00;65.40
19060;DHT22;9663;48.996;8.334;2023-11-22T03:14:55;10.00;65.40
19060;DHT22;9663;48.996;8.334;2023-11-22T03:17:27;10.00;65.40
19060;DHT22;9663;48.996;8.334;2023-11-22T03:19:56;10.00;65.40
19060;DHT22;9663;48.996;8.334;2023-11-22T03:22:23;10.00;65.40
19060;DHT22;9663;48.996;8.334;2023-11-22T03:24:50;10.00;65.40
19060;DHT22;9663;48.996;8.334;2023-11-22T03:27:16;10.00;65.50
19060;DHT22;9663;48.996;8.334;2023-11-22T03:29:42;10.00;65.40
19060;DHT22;9663;48.996;8.334;2023-11-22T03:32:08;10.00;65.40
19060;DHT22;9663;48.996;8.334;2023-11-22T03:34:33;10.00;65.50
19060;DHT22;9663;48.996;8.334;2023-11-22T03:36:59;10.00;65.40
19060;DHT22;9663;48.996;8.334;2023-11-22T03:39:24;9.90;65.50
19060;DHT22;9663;48.996;8.334;2023-11-22T03:41:50;9.90;65.40
19060;DHT22;9663;48.996;8.334;2023-11-22T03:44:16;10.00;65.50
19060;DHT22;9663;48.996;8.334;2023-11-22T03:46:43;10.00;65.50
19060;DHT22;9663;48.996;8.334;2023-11-22T03:49:09;10.00;65.60
19060;DHT22;9663;48.996;8.334;2023-11-22T03:51:36;10.00;65.50
19060;DHT22;9663;48.996;8.334;2023-11-22T03:54:03;10.00;65.40
19060;DHT22;9663;48.996;8.334;2023-11-22T03:56:29;9.90;65.30
19060;DHT22;9663;48.996;8.334;2023-11-22T03:58:55;9.90;65.10
19060;DHT22;9663;48.996;8.334;2023-11-22T04:01:21;9.90;64.90
19060;DHT22;9663;48.996;8.334;2023-11-22T04:03:47;9.80;64.80
19060;DHT22;9663;48.996;8.334;2023-11-22T04:06:15;9.80;64.70
19060;DHT22;9663;48.996;8.334;2023-11-22T04:08:43;9.70;64.60
19060;DHT22;9663;48.996;8.334;2023-11-22T04:11:09;9.60;64.70
19060;DHT22;9663;48.996;8.334;2023-11-22T04:13:36;9.50;64.70
19060;DHT22;9663;48.996;8.334;2023-11-22T04:16:02;9.40;64.60
19060;DHT22;9663;48.996;8.334;2023-11-22T04:18:28;9.30;64.60
19060;DHT22;9663;48.996;8.334;2023-11-22T04:20:54;9.20;64.60
19060;DHT22;9663;48.996;8.334;2023-11-22T04:23:20;9.20;64.60
19060;DHT22;9663;48.996;8.334;2023-11-22T04:25:46;9.10;64.50
19060;DHT22;9663;48.996;8.334;2023-11-22T04:28:14;9.00;64.60
19060;DHT22;9663;48.996;8.334;2023-11-22T04:30:40;8.90;64.60
19060;DHT22;9663;48.996;8.334;2023-11-22T04:33:07;8.80;64.70
19060;DHT22;9663;48.996;8.334;2023-11-22T04:35:32;8.70;64.60
19060;DHT22;9663;48.996;8.334;2023-11-22T04:38:02;8.70;64.70
19060;DHT22;9663;48.996;8.334;2023-11-22T04:40:29;8.70;64.80
19060;DHT22;9663;48.996;8.334;2023-11-22T04:42:55;8.60;64.80
19060;DHT22;9663;48.996;8.334;2023-11-22T04:45:21;8.50;64.70
19060;DHT22;9663;48.996;8.334;2023-11-22T04:47:46;8.50;64.80
19060;DHT22;9663;48.996;8.334;2023-11-22T04:50:12;8.50;64.80
19060;DHT22;9663;48.996;8.334;2023-11-22T04:52:38;8.40;64.90
19060;DHT22;9663;48.996;8.334;2023-11-22T04:55:05;8.40;64.90
19060;DHT22;9663;48.996;8.334;2023-11-22T04:57:31;8.30;64.90
19060;DHT22;9663;48.996;8.334;2023-11-22T04:59:56;8.30;64.90
19060;DHT22;9663;48.996;8.334;2023-11-22T05:02:22;8.20;64.80
19060;DHT22;9663;48.996;8.334;2023-11-22T05:04:48;8.20;64.90
19060;DHT22;9663;48.996;8.334;2023-11-22T05:07:15;8.10;65.70
19060;DHT22;9663;48.996;8.334;2023-11-22T05:09:41;8.10;65.00
19060;DHT22;9663;48.996;8.334;2023-11-22T05:12:09;8.00;65.00
19060;DHT22;9663;48.996;8.334;2023-11-22T05:14:36;8.00;65.10
19060;DHT22;9663;48.996;8.334;2023-11-22T05:17:02;8.00;65.10
19060;DHT22;9663;48.996;8.334;2023-11-22T05:19:27;8.00;65.10
19060;DHT22;9663;48.996;8.334;2023-11-22T05:21:53;7.90;65.10
19060;DHT22;9663;48.996;8.334;2023-11-22T05:24:19;7.90;65.20
19060;DHT22;9663;48.996;8.334;2023-11-22T05:26:44;7.80;65.30
19060;DHT22;9663;48.996;8.334;2023-11-22T05:29:10;7.80;65.30
19060;DHT22;9663;48.996;8.334;2023-11-22T05:31:36;7.80;65.40
19060;DHT22;9663;48.996;8.334;2023-11-22T05:34:02;7.70;65.30
19060;DHT22;9663;48.996;8.334;2023-11-22T05:36:29;7.70;65.40
19060;DHT22;9663;48.996;8.334;2023-11-22T05:38:55;7.70;65.40
19060;DHT22;9663;48.996;8.334;2023-11-22T05:41:24;7.70;65.40
19060;DHT22;9663;48.996;8.334;2023-11-22T05:43:51;7.60;65.30
19060;DHT22;9663;48.996;8.334;2023-11-22T05:46:19;7.60;65.30
19060;DHT22;9663;48.996;8.334;2023-11-22T05:48:48;7.60;65.30
19060;DHT22;9663;48.996;8.334;2023-11-22T05:51:15;7.50;65.30
19060;DHT22;9663;48.996;8.334;2023-11-22T05:53:41;7.50;65.40
19060;DHT22;9663;48.996;8.334;2023-11-22T05:56:07;7.50;65.30
19060;DHT22;9663;48.996;8.334;2023-11-22T05:58:34;7.50;65.40
19060;DHT22;9663;48.996;8.334;2023-11-22T06:01:07;7.40;65.40
19060;DHT22;9663;48.996;8.334;2023-11-22T06:03:34;7.40;65.40
19060;DHT22;9663;48.996;8.334;2023-11-22T06:06:01;7.40;65.40
19060;DHT22;9663;48.996;8.334;2023-11-22T06:08:28;7.40;65.40
19060;DHT22;9663;48.996;8.334;2023-11-22T06:10:54;7.40;65.40
19060;DHT22;9663;48.996;8.334;2023-11-22T06:13:22;7.30;65.40
19060;DHT22;9663;48.996;8.334;2023-11-22T06:15:48;7.30;65.40
19060;DHT22;9663;48.996;8.334;2023-11-22T06:18:13;7.30;65.40
19060;DHT22;9663;48.996;8.334;2023-11-22T06:20:41;7.30;65.40
19060;DHT22;9663;48.996;8.334;2023-11-22T06:23:07;7.30;65.40
19060;DHT22;9663;48.996;8.334;2023-11-22T06:25:32;7.20;65.40
19060;DHT22;9663;48.996;8.334;2023-11-22T06:27:58;7.20;65.40
19060;DHT22;9663;48.996;8.334;2023-11-22T06:30:24;7.20;65.40
19060;DHT22;9663;48.996;8.334;2023-11-22T06:32:51;7.20;65.40
19060;DHT22;9663;48.996;8.334;2023-11-22T06:35:16;7.10;65.30
19060;DHT22;9663;48.996;8.334;2023-11-22T06:37:43;7.10;65.30
19060;DHT22;9663;48.996;8.334;2023-11-22T06:40:12;7.10;65.30
19060;DHT22;9663;48.996;8.334;2023-11-22T06:42:39;7.00;65.30
19060;DHT22;9663;48.996;8.334;2023-11-22T06:45:06;7.00;65.30
19060;DHT22;9663;48.996;8.334;2023-11-22T06:47:38;7.00;65.20
19060;DHT22;9663;48.996;8.334;2023-11-22T06:50:05;7.00;65.20
19060;DHT22;9663;48.996;8.334;2023-11-22T06:52:41;7.00;65.10
19060;DHT22;9663;48.996;8.334;2023-11-22T06:55:08;6.90;65.10
19060;DHT22;9663;48.996;8.334;2023-11-22T06:57:38;6.90;65.00
19060;DHT22;9663;48.996;8.334;2023-11-22T07:00:04;6.90;65.00
19060;DHT22;9663;48.996;8.334;2023-11-22T07:02:34;6.90;64.90
19060;DHT22;9663;48.996;8.334;2023-11-22T07:05:01;6.80;64.80
19060;DHT22;9663;48.996;8.334;2023-11-22T07:07:37;6.80;64.80
19060;DHT22;9663;48.996;8.334;2023-11-22T07:10:04;6.80;64.80
19060;DHT22;9663;48.996;8.334;2023-11-22T07:12:31;6.80;64.90
19060;DHT22;9663;48.996;8.334;2023-11-22T07:14:59;6.80;64.80
19060;DHT22;9663;48.996;8.334;2023-11-22T07:17:25;6.80;64.80
19060;DHT22;9663;48.996;8.334;2023-11-22T07:19:53;6.80;64.80
19060;DHT22;9663;48.996;8.334;2023-11-22T07:22:19;6.80;65.60
19060;DHT22;9663;48.996;8.334;2023-11-22T07:24:48;6.80;64.80
19060;DHT22;9663;48.996;8.334;2023-11-22T07:27:17;6.70;64.70
19060;DHT22;9663;48.996;8.334;2023-11-22T07:29:44;6.80;64.70
19060;DHT22;9663;48.996;8.334;2023-11-22T07:32:11;6.70;64.60
19060;DHT22;9663;48.996;8.334;2023-11-22T07:34:37;6.80;64.70
19060;DHT22;9663;48.996;8.334;2023-11-22T07:37:05;6.80;64.60
19060;DHT22;9663;48.996;8.334;2023-11-22T07:39:35;6.80;64.70
19060;DHT22;9663;48.996;8.334;2023-11-22T07:42:03;6.80;64.70
19060;DHT22;9663;48.996;8.334;2023-11-22T07:44:33;6.80;64.70
19060;DHT22;9663;48.996;8.334;2023-11-22T07:47:04;6.90;64.60
19060;DHT22;9663;48.996;8.334;2023-11-22T07:49:34;6.90;64.60
19060;DHT22;9663;48.996;8.334;2023-11-22T07:52:03;6.90;64.60
19060;DHT22;9663;48.996;8.334;2023-11-22T07:54:30;7.00;64.60
19060;DHT22;9663;48.996;8.334;2023-11-22T07:56:55;7.10;64.70
19060;DHT22;9663;48.996;8.334;2023-11-22T07:59:21;7.10;64.40
19060;DHT22;9663;48.996;8.334;2023-11-22T08:01:47;7.20;64.60
19060;DHT22;9663;48.996;8.334;2023-11-22T08:04:14;7.20;64.40
19060;DHT22;9663;48.996;8.334;2023-11-22T08:06:40;7.30;64.50
19060;DHT22;9663;48.996;8.334;2023-11-22T08:09:06;7.40;64.50
19060;DHT22;9663;48.996;8.334;2023-11-22T08:11:34;7.40;64.20
19060;DHT22;9663;48.996;8.334;2023-11-22T08:14:01;7.50;64.30
19060;DHT22;9663;48.996;8.334;2023-11-22T08:16:27;7.60;64.30
19060;DHT22;9663;48.996;8.334;2023-11-22T08:18:53;7.70;64.20
19060;DHT22;9663;48.996;8.334;2023-11-22T08:21:19;7.70;64.30
19060;DHT22;9663;48.996;8.334;2023-11-22T08:23:47;7.80;64.30
19060;DHT22;9663;48.996;8.334;2023-11-22T08:26:14;7.90;63.90
19060;DHT22;9663;48.996;8.334;2023-11-22T08:28:40;8.00;63.90
19060;DHT22;9663;48.996;8.334;2023-11-22T08:31:06;8.10;63.70
19060;DHT22;9663;48.996;8.334;2023-11-22T08:33:38;8.10;63.30
19060;DHT22;9663;48.996;8.334;2023-11-22T08:36:08;8.20;63.00
19060;DHT22;9663;48.996;8.334;2023-11-22T08:38:37;8.30;62.90
19060;DHT22;9663;48.996;8.334;2023-11-22T08:41:07;8.30;62.50
19060;DHT22;9663;48.996;8.334;2023-11-22T08:43:33;8.30;62.10
19060;DHT22;9663;48.996;8.334;2023-11-22T08:46:00;8.30;62.00
19060;DHT22;9663;48.996;8.334;2023-11-22T08:48:30;8.30;61.90
19060;DHT22;9663;48.996;8.334;2023-11-22T08:50:56;8.40;62.00
19060;DHT22;9663;48.996;8.334;2023-11-22T08:53:22;8.40;61.90
19060;DHT22;9663;48.996;8.334;2023-11-22T08:55:48;8.40;61.90
19060;DHT22;9663;48.996;8.334;2023-11-22T08:58:14;8.40;61.70
19060;DHT22;9663;48.996;8.334;2023-11-22T09:00:40;8.40;61.80
19060;DHT22;9663;48.996;8.334;2023-11-22T09:03:10;8.40;61.80
19060;DHT22;9663;48.996;8.334;2023-11-22T09:05:41;8.50;61.90
19060;DHT22;9663;48.996;8.334;2023-11-22T09:08:08;8.70;62.10
19060;DHT22;9663;48.996;8.334;2023-11-22T09:10:39;8.70;61.70
19060;DHT22;9663;48.996;8.334;2023-11-22T09:13:05;8.80;61.70
19060;DHT22;9663;48.996;8.334;2023-11-22T09:15:31;8.90;61.30
19060;DHT22;9663;48.996;8.334;2023-11-22T09:17:59;9.00;61.30
19060;DHT22;9663;48.996;8.334;2023-11-22T09:20:25;9.10;61.30
19060;DHT22;9663;48.996;8.334;2023-11-22T09:22:53;9.10;61.00
19060;DHT22;9663;48.996;8.334;2023-11-22T09:25:26;9.20;61.00
19060;DHT22;9663;48.996;8.334;2023-11-22T09:27:54;9.20;60.70
19060;DHT22;9663;48.996;8.334;2023-11-22T09:30:25;9.20;60.80
19060;DHT22;9663;48.996;8.334;2023-11-22T09:33:05;9.20;60.80
19060;DHT22;9663;48.996;8.334;2023-11-22T09:35:33;9.20;60.40
19060;DHT22;9663;48.996;8.334;2023-11-22T09:38:06;9.10;61.20
19060;DHT22;9663;48.996;8.334;2023-11-22T09:40:44;9.10;60.30
19060;DHT22;9663;48.996;8.334;2023-11-22T09:43:11;9.00;60.50
19060;DHT22;9663;48.996;8.334;2023-11-22T09:45:40;9.00;60.90
19060;DHT22;9663;48.996;8.334;2023-11-22T09:48:17;8.90;60.90
19060;DHT22;9663;48.996;8.334;2023-11-22T09:51:36;9.00;60.90
19060;DHT22;9663;48.996;8.334;2023-11-22T09:56:22;9.10;61.20
19060;DHT22;9663;48.996;8.334;2023-11-22T09:58:52;9.20;61.20
19060;DHT22;9663;48.996;8.334;2023-11-22T10:01:25;9.30;61.10
19060;DHT22;9663;48.996;8.334;2023-11-22T10:03:54;9.40;61.00
19060;DHT22;9663;48.996;8.334;2023-11-22T10:06:20;9.40;61.00
19060;DHT22;9663;48.996;8.334;2023-11-22T10:08:46;9.50;61.00
19060;DHT22;9663;48.996;8.334;2023-11-22T10:11:16;9.50;60.80
19060;DHT22;9663;48.996;8.334;2023-11-22T10:13:49;9.50;60.70
19060;DHT22;9663;48.996;8.334;2023-11-22T10:16:18;9.50;60.40
19060;DHT22;9663;48.996;8.334;2023-11-22T10:18:46;9.50;60.20
19060;DHT22;9663;48.996;8.334;2023-11-22T10:21:23;9.50;60.20
19060;DHT22;9663;48.996;8.334;2023-11-22T10:24:00;9.50;59.90
19060;DHT22;9663;48.996;8.334;2023-11-22T10:26:30;9.40;60.00
19060;DHT22;9663;48.996;8.334;2023-11-22T10:28:56;9.40;60.40
19060;DHT22;9663;48.996;8.334;2023-11-22T10:31:23;9.40;60.40
19060;DHT22;9663;48.996;8.334;2023-11-22T10:33:50;9.40;60.30
19060;DHT22;9663;48.996;8.334;2023-11-22T10:36:18;9.40;60.30
19060;DHT22;9663;48.996;8.334;2023-11-22T10:38:49;9.40;60.40
19060;DHT22;9663;48.996;8.334;2023-11-22T10:41:16;9.50;60.50
19060;DHT22;9663;48.996;8.334;2023-11-22T10:43:43;9.60;60.60
19060;DHT22;9663;48.996;8.334;2023-11-22T10:46:12;9.60;60.50
19060;DHT22;9663;48.996;8.334;2023-11-22T10:48:39;9.70;60.50
19060;DHT22;9663;48.996;8.334;2023-11-22T10:51:05;9.90;60.80
19060;DHT22;9663;48.996;8.334;2023-11-22T10:53:33;10.10;60.70
19060;DHT22;9663;48.996;8.334;2023-11-22T10:56:20;10.20;60.30
19060;DHT22;9663;48.996;8.334;2023-11-22T10:58:48;10.30;59.60
19060;DHT22;9663;48.996;8.334;2023-11-22T11:01:20;10.40;59.80
19060;DHT22;9663;48.996;8.334;2023-11-22T11:06:33;10.30;58.90
19060;DHT22;9663;48.996;8.334;2023-11-22T11:09:06;10.20;58.90
19060;DHT22;9663;48.996;8.334;2023-11-22T11:11:38;10.10;59.00
19060;DHT22;9663;48.996;8.334;2023-11-22T11:14:08;10.00;58.90
19060;DHT22;9663;48.996;8.334;2023-11-22T11:16:38;9.90;59.00
19060;DHT22;9663;48.996;8.334;2023-11-22T11:19:14;9.90;59.10
19060;DHT22;9663;48.996;8.334;2023-11-22T11:21:43;9.80;59.20
19060;DHT22;9663;48.996;8.334;2023-11-22T11:24:08;9.90;59.60
19060;DHT22;9663;48.996;8.334;2023-11-22T11:26:34;9.90;59.60
19060;DHT22;9663;48.996;8.334;2023-11-22T11:29:00;9.90;59.70
19060;DHT22;9663;48.996;8.334;2023-11-22T11:31:32;9.90;59.60
19060;DHT22;9663;48.996;8.334;2023-11-22T11:34:05;10.00;59.30
19060;DHT22;9663;48.996;8.334;2023-11-22T11:36:32;10.00;59.30
19060;DHT22;9663;48.996;8.334;2023-11-22T11:39:04;10.10;59.40
19060;DHT22;9663;48.996;8.334;2023-11-22T11:41:35;10.10;59.40
19060;DHT22;9663;48.996;8.334;2023-11-22T11:44:07;10.10;59.30
19060;DHT22;9663;48.996;8.334;2023-11-22T11:46:38;10.10;59.10
19060;DHT22;9663;48.996;8.334;2023-11-22T11:49:08;10.30;59.60
19060;DHT22;9663;48.996;8.334;2023-11-22T11:51:39;10.30;59.50
19060;DHT22;9663;48.996;8.334;2023-11-22T11:54:05;10.40;59.30
19060;DHT22;9663;48.996;8.334;2023-11-22T11:56:31;10.40;59.00
19060;DHT22;9663;48.996;8.334;2023-11-22T11:58:59;10.50;58.80
19060;DHT22;9663;48.996;8.334;2023-11-22T12:01:28;10.50;58.70
19060;DHT22;9663;48.996;8.334;2023-11-22T12:04:01;10.50;58.60
19060;DHT22;9663;48.996;8.334;2023-11-22T12:06:28;10.50;58.60
19060;DHT22;9663;48.996;8.334;2023-11-22T12:08:54;10.50;58.50
19060;DHT22;9663;48.996;8.334;2023-11-22T12:11:20;10.40;58.30
19060;DHT22;9663;48.996;8.334;2023-11-22T12:13:46;10.40;58.20
19060;DHT22;9663;48.996;8.334;2023-11-22T12:16:16;10.40;58.20
19060;DHT22;9663;48.996;8.334;2023-11-22T12:18:43;10.50;58.30
19060;DHT22;9663;48.996;8.334;2023-11-22T12:21:11;10.50;58.30
19060;DHT22;9663;48.996;8.334;2023-11-22T12:23:39;10.50;58.20
19060;DHT22;9663;48.996;8.334;2023-11-22T12:26:11;10.50;58.10
19060;DHT22;9663;48.996;8.334;2023-11-22T12:28:39;10.50;58.00
19060;DHT22;9663;48.996;8.334;2023-11-22T12:31:07;10.40;58.00
19060;DHT22;9663;48.996;8.334;2023-11-22T12:33:35;10.40;57.90
19060;DHT22;9663;48.996;8.334;2023-11-22T12:36:03;10.40;57.70
19060;DHT22;9663;48.996;8.334;2023-11-22T12:38:29;10.30;57.80
19060;DHT22;9663;48.996;8.334;2023-11-22T12:40:58;10.30;58.00
19060;DHT22;9663;48.996;8.334;2023-11-22T12:43:24;10.20;57.60
19060;DHT22;9663;48.996;8.334;2023-11-22T12:46:04;10.20;58.00
19060;DHT22;9663;48.996;8.334;2023-11-22T12:48:39;10.20;57.70
19060;DHT22;9663;48.996;8.334;2023-11-22T12:51:15;10.20;58.10
19060;DHT22;9663;48.996;8.334;2023-11-22T12:53:44;10.10;57.60
19060;DHT22;9663;48.996;8.334;2023-11-22T12:56:11;10.10;57.80
19060;DHT22;9663;48.996;8.334;2023-11-22T12:58:37;10.10;57.80
19060;DHT22;9663;48.996;8.334;2023-11-22T13:01:02;10.00;57.80
19060;DHT22;9663;48.996;8.334;2023-11-22T13:03:28;10.00;57.80
19060;DHT22;9663;48.996;8.334;2023-11-22T13:05:55;9.90;57.80
19060;DHT22;9663;48.996;8.334;2023-11-22T13:08:21;9.90;58.00
19060;DHT22;9663;48.996;8.334;2023-11-22T13:10:54;10.00;58.20
19060;DHT22;9663;48.996;8.334;2023-11-22T13:13:24;10.00;58.30
19060;DHT22;9663;48.996;8.334;2023-11-22T13:15:54;10.10;58.20
19060;DHT22;9663;48.996;8.334;2023-11-22T13:18:20;10.10;58.30
19060;DHT22;9663;48.996;8.334;2023-11-22T13:20:46;10.20;58.20
19060;DHT22;9663;48.996;8.334;2023-11-22T13:23:12;10.20;58.20
19060;DHT22;9663;48.996;8.334;2023-11-22T13:25:39;10.20;58.10
19060;DHT22;9663;48.996;8.334;2023-11-22T13:28:06;10.20;57.90
19060;DHT22;9663;48.996;8.334;2023-11-22T13:30:34;10.20;57.70
19060;DHT22;9663;48.996;8.334;2023-11-22T13:33:00;10.10;57.60
19060;DHT22;9663;48.996;8.334;2023-11-22T13:35:28;10.10;57.70
19060;DHT22;9663;48.996;8.334;2023-11-22T13:37:59;10.00;57.50
19060;DHT22;9663;48.996;8.334;2023-11-22T13:40:27;9.90;57.50
19060;DHT22;9663;48.996;8.334;2023-11-22T13:42:57;9.90;57.50
19060;DHT22;9663;48.996;8.334;2023-11-22T13:45:26;9.80;57.60
19060;DHT22;9663;48.996;8.334;2023-11-22T13:47:53;9.80;57.70
19060;DHT22;9663;48.996;8.334;2023-11-22T13:50:34;9.70;57.70
19060;DHT22;9663;48.996;8.334;2023-11-22T13:53:01;9.70;57.80
19060;DHT22;9663;48.996;8.334;2023-11-22T13:55:29;9.70;57.90
19060;DHT22;9663;48.996;8.334;2023-11-22T13:57:57;9.70;57.80
19060;DHT22;9663;48.996;8.334;2023-11-22T14:00:28;9.70;57.90
19060;DHT22;9663;48.996;8.334;2023-11-22T14:02:59;9.70;57.90
19060;DHT22;9663;48.996;8.334;2023-11-22T14:05:32;9.70;57.90
19060;DHT22;9663;48.996;8.334;2023-11-22T14:08:00;9.70;57.90
19060;DHT22;9663;48.996;8.334;2023-11-22T14:10:26;9.80;58.00
19060;DHT22;9663;48.996;8.334;2023-11-22T14:12:52;9.70;58.00
19060;DHT22;9663;48.996;8.334;2023-11-22T14:15:18;9.80;58.10
19060;DHT22;9663;48.996;8.334;2023-11-22T14:17:47;9.80;58.00
19060;DHT22;9663;48.996;8.334;2023-11-22T14:20:16;9.80;57.90
19060;DHT22;9663;48.996;8.334;2023-11-22T14:22:42;9.90;58.10
19060;DHT22;9663;48.996;8.334;2023-11-22T14:25:09;9.90;57.70
19060;DHT22;9663;48.996;8.334;2023-11-22T14:27:40;9.80;57.60
19060;DHT22;9663;48.996;8.334;2023-11-22T14:30:08;9.80;57.40
19060;DHT22;9663;48.996;8.334;2023-11-22T14:32:36;9.70;57.40
19060;DHT22;9663;48.996;8.334;2023-11-22T14:35:06;9.70;57.60
19060;DHT22;9663;48.996;8.334;2023-11-22T14:37:35;9.70;57.50
19060;DHT22;9663;48.996;8.334;2023-11-22T14:40:05;9.60;57.50
19060;DHT22;9663;48.996;8.334;2023-11-22T14:42:42;9.60;57.40
19060;DHT22;9663;48.996;8.334;2023-11-22T14:45:10;9.50;57.40
19060;DHT22;9663;48.996;8.334;2023-11-22T14:47:39;9.40;57.40
19060;DHT22;9663;48.996;8.334;2023-11-22T14:50:06;9.40;57.70
19060;DHT22;9663;48.996;8.334;2023-11-22T14:52:35;9.40;57.80
19060;DHT22;9663;48.996;8.334;2023-11-22T14:55:01;9.50;57.80
19060;DHT22;9663;48.996;8.334;2023-11-22T14:57:28;9.40;57.70
19060;DHT22;9663;48.996;8.334;2023-11-22T14:59:53;9.40;57.50
19060;DHT22;9663;48.996;8.334;2023-11-22T15:02:19;9.40;57.40
19060;DHT22;9663;48.996;8.334;2023-11-22T15:04:45;9.40;57.40
19060;DHT22;9663;48.996;8.334;2023-11-22T15:07:12;9.30;57.40
19060;DHT22;9663;48.996;8.334;2023-11-22T15:09:38;9.30;57.40
19060;DHT22;9663;48.996;8.334;2023-11-22T15:12:04;9.30;57.40
19060;DHT22;9663;48.996;8.334;2023-11-22T15:14:31;9.20;57.50
19060;DHT22;9663;48.996;8.334;2023-11-22T15:16:58;9.20;57.60
19060;DHT22;9663;48.996;8.334;2023-11-22T15:19:26;9.20;57.70
19060;DHT22;9663;48.996;8.334;2023-11-22T15:21:53;9.20;57.70
19060;DHT22;9663;48.996;8.334;2023-11-22T15:24:20;9.20;57.60
19060;DHT22;9663;48.996;8.334;2023-11-22T15:26:46;9.20;57.60
19060;DHT22;9663;48.996;8.334;2023-11-22T15:29:12;9.10;57.50
19060;DHT22;9663;48.996;8.334;2023-11-22T15:31:38;9.10;57.50
19060;DHT22;9663;48.996;8.334;2023-11-22T15:34:06;9.00;57.50
19060;DHT22;9663;48.996;8.334;2023-11-22T15:36:32;9.00;57.50
19060;DHT22;9663;48.996;8.334;2023-11-22T15:38:59;8.90;57.50
19060;DHT22;9663;48.996;8.334;2023-11-22T15:41:26;8.90;57.50
19060;DHT22;9663;48.996;8.334;2023-11-22T15:43:52;8.80;57.60
19060;DHT22;9663;48.996;8.334;2023-11-22T15:46:18;8.80;57.60
19060;DHT22;9663;48.996;8.334;2023-11-22T15:48:44;8.70;57.60
19060;DHT22;9663;48.996;8.334;2023-11-22T15:51:11;8.70;57.60
19060;DHT22;9663;48.996;8.334;2023-11-22T15:53:41;8.60;57.70
19060;DHT22;9663;48.996;8.334;2023-11-22T15:56:07;8.60;57.80
19060;DHT22;9663;48.996;8.334;2023-11-22T15:58:46;8.50;57.90
19060;DHT22;9663;48.996;8.334;2023-11-22T16:01:12;8.50;57.90
19060;DHT22;9663;48.996;8.334;2023-11-22T16:03:38;8.50;57.90